createdAt,value
2022-09-26T00:01:22.255Z,11.52
2022-09-26T00:03:51.431Z,11.52
2022-09-26T00:06:19.489Z,11.54
2022-09-26T00:08:47.477Z,11.56
2022-09-26T00:11:23.847Z,11.57
2022-09-26T00:13:56.131Z,11.57
2022-09-26T00:16:23.798Z,11.58
2022-09-26T00:18:52.820Z,11.57
2022-09-26T00:21:20.455Z,11.60
2022-09-26T00:23:47.394Z,11.61
2022-09-26T00:26:15.447Z,11.61
2022-09-26T00:28:42.762Z,11.58
2022-09-26T00:31:12.116Z,11.56
2022-09-26T00:33:39.186Z,11.59
2022-09-26T00:36:07.044Z,11.58
2022-09-26T00:38:34.437Z,11.58
2022-09-26T00:41:02.056Z,11.60
2022-09-26T00:43:42.306Z,11.59
2022-09-26T00:46:36.958Z,11.60
2022-09-26T00:49:13.457Z,11.65
2022-09-26T00:51:43.408Z,11.65
2022-09-26T00:54:12.738Z,11.66
2022-09-26T00:56:42.513Z,11.63
2022-09-26T00:59:15.814Z,11.61
2022-09-26T01:01:42.826Z,11.63
2022-09-26T01:04:12.423Z,11.61
2022-09-26T01:06:39.660Z,11.58
2022-09-26T01:09:09.056Z,11.57
2022-09-26T01:11:37.459Z,11.56
2022-09-26T01:14:05.818Z,11.58
2022-09-26T01:16:34.248Z,11.60
2022-09-26T01:19:03.385Z,11.64
2022-09-26T01:21:44.930Z,11.66
2022-09-26T01:25:08.700Z,11.67
2022-09-26T01:28:04.203Z,11.66
2022-09-26T01:30:58.132Z,11.65
2022-09-26T01:33:57.546Z,11.65
2022-09-26T01:36:42.522Z,11.62
2022-09-26T01:39:53.623Z,11.60
2022-09-26T01:42:28.944Z,11.61
2022-09-26T01:45:11.407Z,11.60
2022-09-26T01:47:46.619Z,11.59
2022-09-26T01:50:18.259Z,11.59
2022-09-26T01:52:55.375Z,11.59
2022-09-26T01:55:28.226Z,11.61
2022-09-26T01:58:27.897Z,11.63
2022-09-26T02:00:59.290Z,11.65
2022-09-26T02:03:30.497Z,11.62
2022-09-26T02:06:09.248Z,11.59
2022-09-26T02:08:42.054Z,11.56
2022-09-26T02:11:19.131Z,11.56
2022-09-26T02:14:04.384Z,11.56
2022-09-26T02:16:50.998Z,11.58
2022-09-26T02:19:26.330Z,11.56
2022-09-26T02:21:53.937Z,11.52
2022-09-26T02:24:22.288Z,11.51
2022-09-26T02:26:50.811Z,11.49
2022-09-26T02:29:17.449Z,11.47
2022-09-26T02:31:54.023Z,11.45
2022-09-26T02:34:20.736Z,11.42
2022-09-26T02:36:47.536Z,11.38
2022-09-26T02:39:14.203Z,11.38
2022-09-26T02:41:57.966Z,11.37
2022-09-26T02:44:37.058Z,11.37
2022-09-26T02:47:09.775Z,11.36
2022-09-26T02:50:04.718Z,11.32
2022-09-26T02:52:39.936Z,11.33
2022-09-26T02:55:12.193Z,11.33
2022-09-26T02:58:09.153Z,11.34
2022-09-26T03:00:38.470Z,11.35
2022-09-26T03:03:21.593Z,11.35
2022-09-26T03:05:51.674Z,11.38
2022-09-26T03:08:23.509Z,11.41
2022-09-26T03:10:51.474Z,11.43
2022-09-26T03:13:20.317Z,11.43
2022-09-26T03:15:52.146Z,11.40
2022-09-26T03:18:26.295Z,11.38
2022-09-26T03:20:54.262Z,11.36
2022-09-26T03:23:23.501Z,11.37
2022-09-26T03:26:11.368Z,11.37
2022-09-26T03:28:38.292Z,11.37
2022-09-26T03:31:05.827Z,11.37
2022-09-26T03:33:32.448Z,11.39
2022-09-26T03:36:00.179Z,11.38
2022-09-26T03:38:27.444Z,11.42
2022-09-26T03:40:54.419Z,11.43
2022-09-26T03:43:24.380Z,11.46
2022-09-26T03:45:51.672Z,11.45
2022-09-26T03:48:18.354Z,11.46
2022-09-26T03:50:44.942Z,11.49
2022-09-26T03:53:11.669Z,11.49
2022-09-26T03:55:38.487Z,11.47
2022-09-26T03:58:05.272Z,11.46
2022-09-26T04:00:31.946Z,11.44
2022-09-26T04:03:03.115Z,11.43
2022-09-26T04:05:29.881Z,11.41
2022-09-26T04:07:56.466Z,11.38
2022-09-26T04:10:26.187Z,11.37
2022-09-26T04:12:52.824Z,11.37
2022-09-26T04:15:19.441Z,11.36
2022-09-26T04:17:46.430Z,11.36
2022-09-26T04:20:13.089Z,11.35
2022-09-26T04:22:40.115Z,11.35
2022-09-26T04:25:07.194Z,11.37
2022-09-26T04:27:33.812Z,11.37
2022-09-26T04:30:00.413Z,11.38
2022-09-26T04:32:27.013Z,11.38
2022-09-26T04:34:53.587Z,11.36
2022-09-26T04:37:21.149Z,11.36
2022-09-26T04:39:48.445Z,11.33
2022-09-26T04:42:15.102Z,11.31
2022-09-26T04:44:41.773Z,11.29
2022-09-26T04:47:08.395Z,11.30
2022-09-26T04:49:34.985Z,11.29
2022-09-26T04:52:01.824Z,11.26
2022-09-26T04:54:28.412Z,11.25
2022-09-26T04:56:55.030Z,11.25
2022-09-26T04:59:21.659Z,11.26
2022-09-26T05:01:48.318Z,11.26
2022-09-26T05:04:14.971Z,11.27
2022-09-26T05:06:41.559Z,11.24
2022-09-26T05:09:08.438Z,11.25
2022-09-26T05:11:35.150Z,11.24
2022-09-26T05:14:03.566Z,11.23
2022-09-26T05:16:30.600Z,11.22
2022-09-26T05:18:57.345Z,11.22
2022-09-26T05:21:24.016Z,11.20
2022-09-26T05:24:09.259Z,11.20
2022-09-26T05:26:42.098Z,11.19
2022-09-26T05:29:09.545Z,11.17
2022-09-26T05:31:40.067Z,11.17
2022-09-26T05:34:12.202Z,11.15
2022-09-26T05:36:43.150Z,11.20
2022-09-26T05:39:30.024Z,11.23
2022-09-26T05:41:58.327Z,11.25
2022-09-26T05:44:27.548Z,11.28
2022-09-26T05:46:57.488Z,11.28
2022-09-26T05:49:25.185Z,11.30
2022-09-26T05:51:53.801Z,11.31
2022-09-26T05:54:24.190Z,11.33
2022-09-26T05:56:50.898Z,11.37
2022-09-26T05:59:17.479Z,11.40
2022-09-26T06:01:44.298Z,11.36
2022-09-26T06:04:11.012Z,11.31
2022-09-26T06:06:37.735Z,11.30
2022-09-26T06:09:07.238Z,11.29
2022-09-26T06:11:34.108Z,11.25
2022-09-26T06:14:03.375Z,11.19
2022-09-26T06:16:30.194Z,11.13
2022-09-26T06:18:57.070Z,11.06
2022-09-26T06:21:26.175Z,11.00
2022-09-26T06:23:52.868Z,10.96
2022-09-26T06:26:24.803Z,10.91
2022-09-26T06:29:00.503Z,10.89
2022-09-26T06:31:28.295Z,10.88
2022-09-26T06:33:55.366Z,10.89
2022-09-26T06:36:23.863Z,10.90
2022-09-26T06:38:51.477Z,10.90
2022-09-26T06:41:18.621Z,10.92
2022-09-26T06:43:46.041Z,10.94
2022-09-26T06:46:15.007Z,10.98
2022-09-26T06:48:42.172Z,11.00
2022-09-26T06:51:09.459Z,11.00
2022-09-26T06:53:36.120Z,11.00
2022-09-26T06:56:10.838Z,11.01
2022-09-26T06:58:38.187Z,11.02
2022-09-26T07:01:09.566Z,11.02
2022-09-26T07:03:39.441Z,11.02
2022-09-26T07:06:09.168Z,11.03
2022-09-26T07:09:00.980Z,11.05
2022-09-26T07:11:38.078Z,11.08
2022-09-26T07:14:17.810Z,11.11
2022-09-26T07:16:52.203Z,11.16
2022-09-26T07:19:21.547Z,11.20
2022-09-26T07:21:49.472Z,11.23
2022-09-26T07:24:16.171Z,11.27
2022-09-26T07:26:42.961Z,11.31
2022-09-26T07:29:12.204Z,11.34
2022-09-26T07:31:39.105Z,11.39
2022-09-26T07:34:08.474Z,11.42
2022-09-26T07:36:35.296Z,11.45
2022-09-26T07:39:04.098Z,11.48
2022-09-26T07:41:31.199Z,11.54
2022-09-26T07:47:06.694Z,11.60
2022-09-26T07:49:51.643Z,11.62
2022-09-26T07:52:22.629Z,11.65
2022-09-26T07:54:51.902Z,11.66
2022-09-26T07:57:19.451Z,11.71
2022-09-26T07:59:50.548Z,11.72
2022-09-26T08:02:25.774Z,11.74
2022-09-26T08:05:00.335Z,11.76
2022-09-26T08:07:27.760Z,11.78
2022-09-26T08:09:54.329Z,11.80
2022-09-26T08:12:24.555Z,11.82
2022-09-26T08:14:52.968Z,11.85
2022-09-26T08:17:20.679Z,11.84
2022-09-26T08:19:48.793Z,11.85
2022-09-26T08:22:15.399Z,11.87
2022-09-26T08:24:44.314Z,11.86
2022-09-26T08:27:10.903Z,11.86
2022-09-26T08:29:40.079Z,11.88
2022-09-26T08:32:06.708Z,11.91
2022-09-26T08:34:35.296Z,11.93
2022-09-26T08:37:01.968Z,11.91
2022-09-26T08:39:33.115Z,11.92
2022-09-26T08:42:09.125Z,11.92
2022-09-26T08:44:58.303Z,11.93
2022-09-26T08:47:48.437Z,11.92
2022-09-26T08:51:12.189Z,11.91
2022-09-26T08:53:52.616Z,11.94
2022-09-26T08:56:27.399Z,11.97
2022-09-26T08:58:56.164Z,12.01
2022-09-26T09:01:29.260Z,12.07
2022-09-26T09:04:05.385Z,12.12
2022-09-26T09:06:32.912Z,12.13
2022-09-26T09:08:59.694Z,12.17
2022-09-26T09:11:41.814Z,12.20
2022-09-26T09:14:08.375Z,12.22
2022-09-26T09:16:58.718Z,12.26
2022-09-26T09:20:04.374Z,12.30
2022-09-26T09:23:13.011Z,12.33
2022-09-26T09:25:51.862Z,12.39
2022-09-26T09:28:27.746Z,12.40
2022-09-26T09:30:57.705Z,12.41
2022-09-26T09:33:29.261Z,12.40
2022-09-26T09:36:03.784Z,12.43
2022-09-26T09:38:33.590Z,12.46
2022-09-26T09:41:09.306Z,12.49
2022-09-26T09:43:47.562Z,12.54
2022-09-26T09:46:23.756Z,12.59
2022-09-26T09:48:58.081Z,12.63
2022-09-26T09:51:39.476Z,12.67
2022-09-26T09:54:09.351Z,12.71
2022-09-26T09:56:52.068Z,12.74
2022-09-26T09:59:18.663Z,12.78
2022-09-26T10:01:50.046Z,12.80
2022-09-26T10:04:36.788Z,12.84
2022-09-26T10:07:05.362Z,12.86
2022-09-26T10:09:40.819Z,12.91
2022-09-26T10:12:14.371Z,12.97
2022-09-26T10:15:02.358Z,13.02
2022-09-26T10:17:29.612Z,13.03
2022-09-26T10:19:56.321Z,13.05
2022-09-26T10:22:26.505Z,13.05
2022-09-26T10:25:00.774Z,13.03
2022-09-26T10:27:38.319Z,13.03
2022-09-26T10:30:25.841Z,13.01
2022-09-26T10:32:59.125Z,13.00
2022-09-26T10:35:40.642Z,12.99
2022-09-26T10:38:27.436Z,12.98
2022-09-26T10:41:03.633Z,12.99
2022-09-26T10:43:38.130Z,13.01
2022-09-26T10:46:17.109Z,13.01
2022-09-26T10:48:47.899Z,13.03
2022-09-26T10:51:21.140Z,13.04
2022-09-26T10:53:53.762Z,13.05
2022-09-26T10:56:28.292Z,13.07
2022-09-26T10:58:59.705Z,13.10
2022-09-26T11:01:31.394Z,13.13
2022-09-26T11:04:13.214Z,13.18
2022-09-26T11:06:48.128Z,13.22
2022-09-26T11:09:20.529Z,13.28
2022-09-26T11:11:50.580Z,13.32
2022-09-26T11:14:29.218Z,13.37
2022-09-26T11:16:56.666Z,13.37
2022-09-26T11:19:53.841Z,13.38
2022-09-26T11:22:38.379Z,13.37
2022-09-26T11:25:20.317Z,13.36
2022-09-26T11:27:53.643Z,13.34
2022-09-26T11:30:22.014Z,13.32
2022-09-26T11:32:51.638Z,13.28
2022-09-26T11:35:33.477Z,13.25
2022-09-26T11:38:38.398Z,13.24
2022-09-26T11:41:38.905Z,13.19
2022-09-26T11:44:23.878Z,13.14
2022-09-26T11:47:30.312Z,13.10
2022-09-26T11:50:37.899Z,13.10
2022-09-26T11:53:42.703Z,13.10
2022-09-26T11:56:40.106Z,13.09
2022-09-26T11:59:49.687Z,13.09
2022-09-26T12:02:34.496Z,13.10
2022-09-26T12:05:13.985Z,13.12
2022-09-26T12:08:01.495Z,13.16
2022-09-26T12:10:46.110Z,13.15
2022-09-26T12:13:29.886Z,13.15
2022-09-26T12:16:14.541Z,13.17
2022-09-26T12:18:59.677Z,13.21
2022-09-26T12:22:06.424Z,13.22
2022-09-26T12:24:51.596Z,13.24
2022-09-26T12:27:39.404Z,13.25
2022-09-26T12:30:11.661Z,13.27
2022-09-26T12:32:52.348Z,13.25
2022-09-26T12:35:43.881Z,13.24
2022-09-26T12:38:16.962Z,13.21
2022-09-26T12:41:14.390Z,13.21
2022-09-26T12:44:22.750Z,13.25
2022-09-26T12:47:12.357Z,13.28
2022-09-26T12:49:47.910Z,13.31
2022-09-26T12:52:43.164Z,13.32
2022-09-26T12:55:28.175Z,13.35
2022-09-26T12:58:21.934Z,13.37
2022-09-26T13:01:23.866Z,13.37
2022-09-26T13:04:09.135Z,13.35
2022-09-26T13:07:07.649Z,13.35
2022-09-26T13:10:00.998Z,13.36
2022-09-26T13:12:46.580Z,13.36
2022-09-26T13:15:35.423Z,13.33
2022-09-26T13:18:15.127Z,13.33
2022-09-26T13:20:51.902Z,13.36
2022-09-26T13:23:34.998Z,13.40
2022-09-26T13:26:14.575Z,13.43
2022-09-26T13:29:06.290Z,13.50
2022-09-26T13:31:43.260Z,13.53
2022-09-26T13:34:32.132Z,13.59
2022-09-26T13:36:59.713Z,13.65
2022-09-26T13:39:38.622Z,13.69
2022-09-26T13:42:15.272Z,13.70
2022-09-26T13:45:12.231Z,13.69
2022-09-26T13:47:46.416Z,13.69
2022-09-26T13:50:27.443Z,13.73
2022-09-26T13:53:12.951Z,13.77
2022-09-26T13:55:40.056Z,13.79
2022-09-26T13:58:20.082Z,13.80
2022-09-26T14:00:53.374Z,13.83
2022-09-26T14:03:20.213Z,13.83
2022-09-26T14:05:52.178Z,13.81
2022-09-26T14:08:43.108Z,13.79
2022-09-26T14:11:19.000Z,13.79
2022-09-26T14:13:47.702Z,13.79
2022-09-26T14:16:35.834Z,13.80
2022-09-26T14:19:15.802Z,13.80
2022-09-26T14:21:49.408Z,13.81
2022-09-26T14:24:32.208Z,13.81
2022-09-26T14:27:05.209Z,13.81
2022-09-26T14:29:39.140Z,13.83
2022-09-26T14:32:09.923Z,13.83
2022-09-26T14:34:45.647Z,13.82
2022-09-26T14:37:21.615Z,13.84
2022-09-26T14:40:11.191Z,13.83
2022-09-26T14:42:43.762Z,13.88
2022-09-26T14:45:16.577Z,13.89
2022-09-26T14:47:50.521Z,13.92
2022-09-26T14:50:34.448Z,13.95
2022-09-26T14:53:34.096Z,13.95
2022-09-26T14:56:06.296Z,13.95
2022-09-26T14:58:50.118Z,13.94
2022-09-26T15:01:28.630Z,13.94
2022-09-26T15:04:02.149Z,13.93
2022-09-26T15:06:30.763Z,13.92
2022-09-26T15:09:10.153Z,13.93
2022-09-26T15:11:49.535Z,13.91
2022-09-26T15:14:39.938Z,13.88
2022-09-26T15:17:14.954Z,13.87
2022-09-26T15:19:55.531Z,13.87
2022-09-26T15:22:27.570Z,13.86
2022-09-26T15:24:55.867Z,13.86
2022-09-26T15:27:29.255Z,13.84
2022-09-26T15:30:14.317Z,13.84
2022-09-26T15:32:41.000Z,13.80
2022-09-26T15:35:12.747Z,13.78
2022-09-26T15:37:39.454Z,13.77
2022-09-26T15:40:26.093Z,13.73
2022-09-26T15:43:21.880Z,13.71
2022-09-26T15:45:49.213Z,13.69
2022-09-26T15:48:32.690Z,13.67
2022-09-26T15:51:16.602Z,13.65
2022-09-26T15:53:59.615Z,13.63
2022-09-26T15:56:35.417Z,13.61
2022-09-26T15:59:24.946Z,13.59
2022-09-26T16:01:52.678Z,13.55
2022-09-26T16:04:27.501Z,13.51
2022-09-26T16:07:04.704Z,13.47
2022-09-26T16:09:40.281Z,13.44
2022-09-26T16:12:16.053Z,13.43
2022-09-26T16:14:50.699Z,13.40
2022-09-26T16:17:35.886Z,13.36
2022-09-26T16:20:24.210Z,13.33
2022-09-26T16:22:53.088Z,13.30
2022-09-26T16:25:19.690Z,13.27
2022-09-26T16:27:51.096Z,13.25
2022-09-26T16:30:23.819Z,13.22
2022-09-26T16:32:54.634Z,13.21
2022-09-26T16:35:30.447Z,13.20
2022-09-26T16:37:57.591Z,13.19
2022-09-26T16:40:24.328Z,13.16
2022-09-26T16:42:51.160Z,13.14
2022-09-26T16:45:17.877Z,13.11
2022-09-26T16:47:45.586Z,13.08
2022-09-26T16:50:26.569Z,13.07
2022-09-26T16:52:54.587Z,13.04
2022-09-26T16:55:21.879Z,13.01
2022-09-26T16:57:56.878Z,13.00
2022-09-26T17:00:48.747Z,12.98
2022-09-26T17:03:30.633Z,12.95
2022-09-26T17:05:58.981Z,12.91
2022-09-26T17:08:27.544Z,12.89
2022-09-26T17:10:57.142Z,12.86
2022-09-26T17:13:26.462Z,12.84
2022-09-26T17:15:57.509Z,12.83
2022-09-26T17:18:29.545Z,12.79
2022-09-26T17:20:57.120Z,12.77
2022-09-26T17:23:41.121Z,12.72
2022-09-26T17:26:16.175Z,12.69
2022-09-26T17:28:42.941Z,12.66
2022-09-26T17:31:19.853Z,12.62
2022-09-26T17:33:49.808Z,12.59
2022-09-26T17:36:28.371Z,12.57
2022-09-26T17:38:57.753Z,12.53
2022-09-26T17:41:25.316Z,12.51
2022-09-26T17:43:58.668Z,12.49
2022-09-26T17:46:25.604Z,12.48
2022-09-26T17:48:52.346Z,12.47
2022-09-26T17:51:21.207Z,12.44
2022-09-26T17:53:51.060Z,12.39
2022-09-26T17:56:19.212Z,12.35
2022-09-26T17:58:47.433Z,12.32
2022-09-26T18:01:30.350Z,12.28
2022-09-26T18:04:01.312Z,12.25
2022-09-26T18:06:31.810Z,12.21
2022-09-26T18:09:05.285Z,12.18
2022-09-26T18:11:34.550Z,12.16
2022-09-26T18:14:04.706Z,12.14
2022-09-26T18:16:31.367Z,12.14
2022-09-26T18:18:58.908Z,12.13
2022-09-26T18:21:26.889Z,12.12
2022-09-26T18:24:02.281Z,12.12
2022-09-26T18:26:37.293Z,12.09
2022-09-26T18:29:07.768Z,12.09
2022-09-26T18:31:38.544Z,12.09
2022-09-26T18:34:12.163Z,12.06
2022-09-26T18:36:38.835Z,12.03
2022-09-26T18:39:05.447Z,11.99
2022-09-26T18:41:32.879Z,11.98
2022-09-26T18:44:02.347Z,11.97
2022-09-26T18:46:29.906Z,11.95
2022-09-26T18:48:58.917Z,11.95
2022-09-26T18:51:28.850Z,11.91
2022-09-26T18:53:55.476Z,11.92
2022-09-26T18:56:40.884Z,11.92
2022-09-26T18:59:10.156Z,11.91
2022-09-26T19:01:40.146Z,11.92
2022-09-26T19:04:17.732Z,11.90
2022-09-26T19:06:47.120Z,11.87
2022-09-26T19:09:20.260Z,11.84
2022-09-26T19:11:47.599Z,11.83
2022-09-26T19:14:18.684Z,11.81
2022-09-26T19:16:47.183Z,11.78
2022-09-26T19:19:14.794Z,11.78
2022-09-26T19:21:50.371Z,11.74
2022-09-26T19:24:34.431Z,11.72
2022-09-26T19:27:06.494Z,11.68
2022-09-26T19:29:59.856Z,11.67
2022-09-26T19:32:51.153Z,11.66
2022-09-26T19:35:25.831Z,11.63
2022-09-26T19:37:53.082Z,11.64
2022-09-26T19:40:21.643Z,11.59
2022-09-26T19:42:48.546Z,11.58
2022-09-26T19:45:16.295Z,11.57
2022-09-26T19:47:46.207Z,11.57
2022-09-26T19:50:20.811Z,11.56
2022-09-26T19:52:48.710Z,11.55
2022-09-26T19:55:21.762Z,11.56
2022-09-26T19:57:48.346Z,11.56
2022-09-26T20:00:15.672Z,11.54
2022-09-26T20:02:42.564Z,11.54
2022-09-26T20:05:24.132Z,11.54
2022-09-26T20:07:51.494Z,11.54
2022-09-26T20:10:21.234Z,11.54
2022-09-26T20:12:51.278Z,11.54
2022-09-26T20:15:21.653Z,11.54
2022-09-26T20:17:49.388Z,11.53
2022-09-26T20:20:25.399Z,11.54
2022-09-26T20:22:56.566Z,11.54
2022-09-26T20:25:27.440Z,11.57
2022-09-26T20:27:55.286Z,11.57
2022-09-26T20:30:41.286Z,11.57
2022-09-26T20:33:09.818Z,11.58
2022-09-26T20:35:41.726Z,11.60
2022-09-26T20:38:33.164Z,11.61
2022-09-26T20:41:16.071Z,11.65
2022-09-26T20:43:48.222Z,11.63
2022-09-26T20:46:15.304Z,11.65
2022-09-26T20:48:45.542Z,11.62
2022-09-26T20:51:27.435Z,11.60
2022-09-26T20:53:54.170Z,11.63
2022-09-26T20:56:21.407Z,11.65
2022-09-26T20:58:48.549Z,11.67
2022-09-26T21:01:17.179Z,11.69
2022-09-26T21:03:53.044Z,11.72
2022-09-26T21:06:22.186Z,11.74
2022-09-26T21:08:49.186Z,11.73
2022-09-26T21:11:18.753Z,11.74
2022-09-26T21:13:45.659Z,11.77
2022-09-26T21:16:14.213Z,11.78
2022-09-26T21:18:44.066Z,11.79
2022-09-26T21:21:30.433Z,11.80
2022-09-26T21:23:59.282Z,11.80
2022-09-26T21:26:28.338Z,11.81
2022-09-26T21:28:56.350Z,11.82
2022-09-26T21:31:29.429Z,11.83
2022-09-26T21:33:58.854Z,11.85
2022-09-26T21:36:33.960Z,11.87
2022-09-26T21:39:01.934Z,11.87
2022-09-26T21:41:29.415Z,11.87
2022-09-26T21:44:04.181Z,11.83
2022-09-26T21:46:30.946Z,11.79
2022-09-26T21:48:57.775Z,11.75
2022-09-26T21:51:27.865Z,11.73
2022-09-26T21:54:13.458Z,11.73
2022-09-26T21:56:50.125Z,11.71
2022-09-26T21:59:19.981Z,11.70
2022-09-26T22:01:46.716Z,11.68
2022-09-26T22:04:14.558Z,11.68
2022-09-26T22:06:42.099Z,11.63
2022-09-26T22:09:09.449Z,11.62
2022-09-26T22:11:36.970Z,11.60
2022-09-26T22:14:04.384Z,11.58
2022-09-26T22:16:31.254Z,11.58
2022-09-26T22:18:58.339Z,11.56
2022-09-26T22:21:24.989Z,11.55
2022-09-26T22:23:52.058Z,11.52
2022-09-26T22:26:19.762Z,11.51
2022-09-26T22:28:46.403Z,11.51
2022-09-26T22:31:13.190Z,11.49
2022-09-26T22:33:39.975Z,11.43
2022-09-26T22:36:06.850Z,11.44
2022-09-26T22:38:35.210Z,11.43
2022-09-26T22:41:04.736Z,11.43
2022-09-26T22:43:32.786Z,11.44
2022-09-26T22:46:05.442Z,11.43
2022-09-26T22:48:34.567Z,11.41
2022-09-26T22:51:01.574Z,11.38
2022-09-26T22:53:31.209Z,11.34
2022-09-26T22:55:58.337Z,11.32
2022-09-26T22:58:26.097Z,11.31
2022-09-26T23:00:52.817Z,11.26
2022-09-26T23:03:19.510Z,11.25
2022-09-26T23:05:51.266Z,11.22
2022-09-26T23:08:17.981Z,11.20
2022-09-26T23:10:49.127Z,11.20
2022-09-26T23:13:16.514Z,11.18
2022-09-26T23:15:43.640Z,11.16
2022-09-26T23:18:11.397Z,11.13
2022-09-26T23:20:42.395Z,11.12
2022-09-26T23:23:10.668Z,11.12
2022-09-26T23:25:44.521Z,11.13
2022-09-26T23:28:11.119Z,11.13
2022-09-26T23:30:38.478Z,11.17
2022-09-26T23:33:05.145Z,11.16
2022-09-26T23:35:31.747Z,11.15
2022-09-26T23:37:58.675Z,11.15
2022-09-26T23:40:25.774Z,11.13
2022-09-26T23:42:52.410Z,11.13
2022-09-26T23:45:19.018Z,11.09
2022-09-26T23:47:46.036Z,11.08
2022-09-26T23:50:12.666Z,11.06
2022-09-26T23:52:39.347Z,11.05
2022-09-26T23:55:06.352Z,11.03
2022-09-26T23:57:32.954Z,11.00
2022-09-26T23:59:59.566Z,10.96
